createdAt,value
2023-04-12T00:00:14.539Z,5.2
2023-04-12T00:05:08.120Z,5.5
2023-04-12T00:10:14.026Z,5.7
2023-04-12T00:15:11.681Z,5.7
2023-04-12T00:25:06.278Z,5.3
2023-04-12T00:30:09.135Z,5.0
2023-04-12T00:35:08.406Z,5.2
2023-04-12T00:40:02.276Z,5.6
2023-04-12T00:45:08.693Z,5.6
2023-04-12T00:50:01.089Z,6.3
2023-04-12T01:00:10.128Z,7.6
2023-04-12T01:10:06.442Z,7.5
2023-04-12T01:15:09.882Z,7.4
2023-04-12T01:20:01.172Z,6.9
2023-04-12T01:25:01.091Z,5.9
2023-04-12T01:30:07.282Z,6.1
2023-04-12T01:35:01.108Z,6.3
2023-04-12T01:40:01.103Z,6.3
2023-04-12T01:45:02.396Z,6.4
2023-04-12T01:50:01.191Z,7.3
2023-04-12T01:55:04.090Z,7.5
2023-04-12T02:00:02.598Z,7.0
2023-04-12T02:05:01.105Z,8.0
2023-04-12T02:10:06.204Z,8.4
2023-04-12T02:15:01.579Z,8.5
2023-04-12T02:20:04.077Z,9.1
2023-04-12T02:25:06.196Z,9.7
2023-04-12T02:30:02.085Z,8.7
2023-04-12T02:35:01.106Z,8.9
2023-04-12T02:45:07.065Z,7.9
2023-04-12T02:50:01.107Z,8.2
2023-04-12T02:55:02.129Z,9.6
2023-04-12T03:00:01.611Z,10.2
2023-04-12T03:05:06.713Z,11.4
2023-04-12T03:10:01.110Z,12.6
2023-04-12T03:15:06.959Z,12.6
2023-04-12T03:20:01.537Z,12.4
2023-04-12T03:25:07.052Z,11.6
2023-04-12T03:30:01.642Z,10.6
2023-04-12T03:35:01.697Z,10.5
2023-04-12T03:40:01.138Z,10.8
2023-04-12T03:45:03.909Z,10.4
2023-04-12T03:50:13.105Z,10.6
2023-04-12T03:55:01.245Z,10.3
2023-04-12T04:00:01.852Z,9.5
2023-04-12T04:05:01.290Z,9.4
2023-04-12T04:10:06.765Z,9.5
2023-04-12T04:20:06.265Z,9.4
2023-04-12T04:25:01.174Z,9.8
2023-04-12T04:30:01.874Z,9.5
2023-04-12T04:40:01.256Z,9.4
2023-04-12T04:45:01.577Z,9.4
2023-04-12T04:50:01.371Z,9.6
2023-04-12T04:55:04.108Z,10.5
2023-04-12T05:00:07.244Z,9.8
2023-04-12T05:10:01.209Z,10.1
2023-04-12T05:15:15.648Z,10.0
2023-04-12T05:20:01.883Z,9.6
2023-04-12T05:25:01.226Z,9.0
2023-04-12T05:35:01.637Z,8.5
2023-04-12T05:40:01.773Z,7.8
2023-04-12T05:45:07.041Z,7.1
2023-04-12T05:50:01.600Z,7.5
2023-04-12T05:55:06.885Z,7.5
2023-04-12T06:00:01.646Z,7.5
2023-04-12T06:05:01.495Z,7.4
2023-04-12T06:11:01.687Z,8.0
2023-04-12T06:16:02.061Z,8.0
2023-04-12T06:26:06.263Z,7.8
2023-04-12T06:31:03.196Z,8.2
2023-04-12T06:36:02.291Z,7.6
2023-04-12T06:46:06.919Z,8.2
2023-04-12T06:51:01.580Z,9.0
2023-04-12T06:56:01.164Z,8.7
2023-04-12T07:01:06.357Z,9.2
2023-04-12T07:06:27.053Z,8.9
2023-04-12T07:11:21.252Z,8.8
2023-04-12T07:17:01.295Z,7.8
2023-04-12T07:27:01.505Z,8.1
2023-04-12T07:37:06.239Z,8.2
2023-04-12T07:42:01.162Z,8.0
2023-04-12T07:47:01.770Z,8.0
2023-04-12T07:52:01.178Z,6.9
2023-04-12T07:57:01.237Z,6.4
2023-04-12T08:02:03.838Z,5.6
2023-04-12T08:07:01.266Z,5.0
2023-04-12T08:12:01.524Z,4.6
2023-04-12T08:27:02.182Z,4.5
2023-04-12T08:32:01.790Z,5.4
2023-04-12T08:37:01.171Z,5.1
2023-04-12T08:47:01.885Z,4.9
2023-04-12T08:52:07.850Z,4.6
2023-04-12T08:57:01.333Z,3.7
2023-04-12T09:02:01.472Z,3.2
2023-04-12T09:07:01.840Z,2.6
2023-04-12T09:12:01.151Z,2.0
2023-04-12T09:17:01.347Z,1.5
2023-04-12T09:22:06.272Z,0.9
2023-04-12T09:27:03.118Z,0.7
2023-04-12T09:32:06.673Z,0.3
2023-04-12T09:37:06.166Z,0.2
2023-04-12T09:42:10.631Z,0.1
2023-04-12T09:47:01.243Z,0.1
2023-04-12T09:57:01.167Z,0.3
2023-04-12T10:12:01.294Z,0.6
2023-04-12T10:17:01.161Z,0.7
2023-04-12T10:22:01.825Z,0.5
2023-04-12T10:27:02.652Z,0.6
2023-04-12T10:37:01.251Z,0.8
2023-04-12T10:42:01.347Z,0.6
2023-04-12T10:47:01.302Z,0.7
2023-04-12T10:52:01.348Z,0.6
2023-04-12T10:57:01.276Z,1.1
2023-04-12T11:02:01.467Z,1.3
2023-04-12T11:07:01.241Z,1.9
2023-04-12T11:12:01.163Z,2.5
2023-04-12T11:17:01.332Z,3.0
2023-04-12T11:22:01.278Z,3.2
2023-04-12T11:27:01.229Z,3.6
2023-04-12T11:32:03.425Z,4.0
2023-04-12T11:37:01.266Z,4.4
2023-04-12T11:42:01.173Z,4.8
2023-04-12T11:47:01.161Z,4.8
2023-04-12T11:57:05.521Z,4.3
2023-04-12T12:02:03.285Z,4.0
2023-04-12T12:07:04.020Z,4.2
2023-04-12T12:12:01.187Z,4.0
2023-04-12T12:17:02.511Z,4.9
2023-04-12T12:22:01.152Z,5.2
2023-04-12T12:27:01.196Z,5.7
2023-04-12T12:32:01.151Z,5.3
2023-04-12T12:37:01.878Z,6.0
2023-04-12T12:42:01.160Z,5.6
2023-04-12T12:47:14.706Z,5.3
2023-04-12T12:52:01.210Z,4.8
2023-04-12T12:57:01.255Z,4.8
2023-04-12T13:07:01.250Z,5.0
2023-04-12T13:12:01.788Z,5.0
2023-04-12T13:17:01.768Z,4.7
2023-04-12T13:22:01.245Z,4.2
2023-04-12T13:27:01.152Z,3.5
2023-04-12T13:32:01.446Z,2.6
2023-04-12T13:37:01.252Z,2.0
2023-04-12T13:42:01.718Z,1.9
2023-04-12T13:47:02.314Z,3.5
2023-04-12T13:52:01.674Z,4.7
2023-04-12T13:57:01.258Z,5.2
2023-04-12T14:02:01.391Z,7.3
2023-04-12T14:07:01.232Z,7.7
2023-04-12T14:12:01.248Z,6.2
2023-04-12T14:17:02.021Z,4.9
2023-04-12T14:22:01.764Z,4.6
2023-04-12T14:27:01.710Z,2.6
2023-04-12T14:32:01.161Z,3.0
2023-04-12T14:37:01.433Z,3.4
2023-04-12T14:42:01.260Z,3.8
2023-04-12T14:47:02.233Z,3.8
2023-04-12T14:52:01.160Z,4.5
2023-04-12T14:57:01.257Z,4.1
2023-04-12T15:02:02.532Z,4.4
2023-04-12T15:07:01.662Z,4.2
2023-04-12T15:12:02.253Z,5.0
2023-04-12T15:17:01.867Z,5.3
2023-04-12T15:22:01.156Z,5.2
2023-04-12T15:27:01.385Z,5.1
2023-04-12T15:32:02.046Z,5.7
2023-04-12T15:37:01.335Z,5.8
2023-04-12T15:42:01.733Z,6.1
2023-04-12T15:47:12.132Z,7.0
2023-04-12T15:52:01.263Z,7.5
2023-04-12T15:57:01.490Z,8.3
2023-04-12T16:02:01.352Z,9.5
2023-04-12T16:07:01.164Z,10.1
2023-04-12T16:12:01.165Z,9.4
2023-04-12T16:17:01.266Z,9.2
2023-04-12T16:22:01.187Z,7.8
2023-04-12T16:27:01.238Z,6.2
2023-04-12T16:32:01.256Z,4.8
2023-04-12T16:42:01.314Z,4.3
2023-04-12T16:47:01.319Z,3.9
2023-04-12T16:52:01.175Z,4.2
2023-04-12T16:57:01.154Z,5.1
2023-04-12T17:02:01.362Z,6.3
2023-04-12T17:07:01.187Z,6.8
2023-04-12T17:12:01.169Z,7.7
2023-04-12T17:17:01.165Z,7.7
2023-04-12T17:22:01.689Z,7.8
2023-04-12T17:27:01.175Z,7.8
2023-04-12T17:32:01.167Z,7.5
2023-04-12T17:37:01.199Z,7.6
2023-04-12T17:42:01.989Z,7.4
2023-04-12T17:47:01.152Z,7.2
2023-04-12T18:02:01.439Z,7.8
2023-04-12T18:07:01.868Z,8.8
2023-04-12T18:12:01.182Z,9.5
2023-04-12T18:17:01.160Z,10.6
2023-04-12T18:22:01.372Z,11.6
2023-04-12T18:27:01.194Z,12.3
2023-04-12T18:32:01.532Z,13.8
2023-04-12T18:37:01.248Z,14.7
2023-04-12T18:42:01.327Z,14.6
2023-04-12T18:47:01.224Z,15.3
2023-04-12T18:57:02.064Z,14.1
2023-04-12T19:02:01.366Z,13.1
2023-04-12T19:07:01.180Z,12.9
2023-04-12T19:12:02.353Z,12.2
2023-04-12T19:22:01.253Z,11.6
2023-04-12T19:27:01.836Z,11.5
2023-04-12T19:32:01.321Z,11.6
2023-04-12T19:37:01.245Z,12.1
2023-04-12T19:42:06.277Z,12.3
2023-04-12T19:47:01.250Z,12.6
2023-04-12T19:52:01.193Z,13.1
2023-04-12T19:58:01.259Z,13.2
2023-04-12T20:03:01.310Z,12.5
2023-04-12T20:08:01.174Z,12.4
2023-04-12T20:13:01.226Z,11.6
2023-04-12T20:18:01.331Z,11.6
2023-04-12T20:23:01.227Z,10.7
2023-04-12T20:28:01.314Z,10.5
2023-04-12T20:33:01.435Z,10.7
2023-04-12T20:38:01.266Z,11.2
2023-04-12T20:43:01.162Z,11.2
2023-04-12T20:48:01.337Z,11.0
2023-04-12T20:53:01.164Z,11.0
2023-04-12T20:58:01.318Z,11.0
2023-04-12T21:03:01.463Z,11.0
2023-04-12T21:08:01.192Z,11.0
2023-04-12T21:13:01.229Z,11.6
2023-04-12T21:18:01.349Z,12.2
2023-04-12T21:23:01.891Z,12.2
2023-04-12T21:33:06.366Z,12.6
2023-04-12T21:38:01.180Z,12.9
2023-04-12T21:43:01.169Z,12.8
2023-04-12T21:54:01.268Z,13.0
2023-04-12T21:59:01.160Z,13.4
2023-04-12T22:04:01.467Z,13.8
2023-04-12T22:09:01.224Z,14.6
2023-04-12T22:14:01.317Z,14.0
2023-04-12T22:19:01.464Z,14.5
2023-04-12T22:24:02.835Z,14.7
2023-04-12T22:29:01.181Z,14.4
2023-04-12T22:35:09.336Z,12.8
2023-04-12T22:40:01.175Z,13.1
2023-04-12T22:45:03.970Z,11.8
2023-04-12T22:50:01.759Z,10.4
2023-04-12T22:55:01.256Z,9.4
2023-04-12T23:00:02.725Z,9.2
2023-04-12T23:05:01.238Z,8.6
2023-04-12T23:10:01.182Z,8.4
2023-04-12T23:15:01.767Z,8.0
2023-04-12T23:20:01.168Z,7.9
2023-04-12T23:25:01.270Z,7.8
2023-04-12T23:30:02.586Z,7.2
2023-04-12T23:35:01.278Z,6.8
2023-04-12T23:40:01.180Z,7.2
2023-04-12T23:45:01.596Z,6.9
2023-04-12T23:50:01.194Z,6.7
2023-04-12T23:55:01.324Z,6.6
